Accueil
METAR-TAF:

METAR-TAF

Aéroports :

Aviano Air Base

Aviano, Italie

latitude: 46-02N, longitude: 012-36E, altitude: 128 m

Observation

Le bulletin a été fait il y a 59 minutes, à 07:55 UTC
Vent 4 kt de nord/nord-est
Température 2°C
Humidité 87%
Pression 1025 hPa
Visibilité 10 km ou plus
Nuages épars à une hauteur de 6000 ft

METAR: LIPA 060755Z 03004KT 9999 SCT060 02/M00 Q1025 RMK SCT VIS MIN 9999 WIND THR05 /////KT WIND THR23 /////KT A3028 BLU

Heure: 09:54 (08:54 UTC)

Prévision

Le bulletin a été fait il y a 54 minutes, à 08:00 UTC
Prévision valable du 06 à 09 UTC au 06 à 18 UTC
Vent 5 kt de direction variable
Visibilité 10 km ou plus
Nuages épars à une hauteur de 4000 ft
Nuages fragmentés à une hauteur de 6000 ft

TAF: LIPA 060800Z 0609/0618 VRB05KT 9999 SCT040 BKN060

Observations et prévisions météorologiques de plus de 4000 aéroports (messages METAR et TAF).

Les stations disponibles sont représentées par des disques jaunes et rouges sur la carte.

Passer la souris dessus pour voir le nom de la station.

Cliquer dessus pour voir les observations et prévisions météorologiques.

Pour changer de carte: cliquez sur les boutons verts avec une croix noire pour zoomer, sur le bouton vert avec un tiret pour effectuer un zoom arrière, ou sur les flèches vertes pour les cartes adjacentes.


METAR-TAF: